createdAt,value
2023-03-16T00:00:56.684Z,1.33
2023-03-16T00:03:24.707Z,1.30
2023-03-16T00:05:54.041Z,1.27
2023-03-16T00:08:22.150Z,1.25
2023-03-16T00:10:50.343Z,1.24
2023-03-16T00:13:19.496Z,1.22
2023-03-16T00:15:55.353Z,1.20
2023-03-16T00:18:27.256Z,1.19
2023-03-16T00:20:58.209Z,1.16
2023-03-16T00:23:29.999Z,1.15
2023-03-16T00:25:59.934Z,1.14
2023-03-16T00:28:30.136Z,1.12
2023-03-16T00:31:00.041Z,1.11
2023-03-16T00:33:28.322Z,1.09
2023-03-16T00:36:03.189Z,1.08
2023-03-16T00:38:36.420Z,1.06
2023-03-16T00:41:06.810Z,1.05
2023-03-16T00:43:43.949Z,1.03
2023-03-16T00:46:14.761Z,1.02
2023-03-16T00:48:47.118Z,1.00
2023-03-16T00:51:17.492Z,0.99
2023-03-16T00:53:46.701Z,0.98
2023-03-16T00:56:15.217Z,0.98
2023-03-16T00:58:43.871Z,0.97
2023-03-16T01:01:20.122Z,0.97
2023-03-16T01:03:49.251Z,0.98
2023-03-16T01:06:17.793Z,0.97
2023-03-16T01:08:45.685Z,0.96
2023-03-16T01:11:17.087Z,0.96
2023-03-16T01:13:47.343Z,0.95
2023-03-16T01:16:23.399Z,0.95
2023-03-16T01:18:52.725Z,0.95
2023-03-16T01:21:21.838Z,0.94
2023-03-16T01:23:51.113Z,0.93
2023-03-16T01:26:21.007Z,0.93
2023-03-16T01:28:49.528Z,0.91
2023-03-16T01:31:17.428Z,0.90
2023-03-16T01:33:45.566Z,0.90
2023-03-16T01:36:18.595Z,0.89
2023-03-16T01:39:06.854Z,0.88
2023-03-16T01:41:43.520Z,0.88
2023-03-16T01:44:17.877Z,0.86
2023-03-16T01:46:46.196Z,0.86
2023-03-16T01:49:28.642Z,0.85
2023-03-16T01:52:02.289Z,0.84
2023-03-16T01:54:40.948Z,0.83
2023-03-16T01:57:15.067Z,0.81
2023-03-16T01:59:49.361Z,0.82
2023-03-16T02:02:21.396Z,0.81
2023-03-16T02:04:56.986Z,0.81
2023-03-16T02:07:27.707Z,0.80
2023-03-16T02:10:02.577Z,0.78
2023-03-16T02:12:30.985Z,0.77
2023-03-16T02:14:59.517Z,0.76
2023-03-16T02:17:29.604Z,0.76
2023-03-16T02:20:34.468Z,0.75
2023-03-16T02:23:05.631Z,0.74
2023-03-16T02:25:46.479Z,0.73
2023-03-16T02:28:45.096Z,0.71
2023-03-16T02:31:13.100Z,0.71
2023-03-16T02:33:42.917Z,0.70
2023-03-16T02:36:12.852Z,0.69
2023-03-16T02:38:41.560Z,0.70
2023-03-16T02:41:15.024Z,0.69
2023-03-16T02:43:48.538Z,0.66
2023-03-16T02:46:28.747Z,0.66
2023-03-16T02:49:03.606Z,0.64
2023-03-16T02:51:32.402Z,0.62
2023-03-16T02:54:00.333Z,0.60
2023-03-16T02:56:29.425Z,0.58
2023-03-16T02:58:57.916Z,0.57
2023-03-16T03:01:26.302Z,0.56
2023-03-16T03:03:55.701Z,0.56
2023-03-16T03:06:24.717Z,0.55
2023-03-16T03:08:52.618Z,0.53
2023-03-16T03:11:21.485Z,0.53
2023-03-16T03:13:49.779Z,0.51
2023-03-16T03:16:21.576Z,0.49
2023-03-16T03:18:50.401Z,0.49
2023-03-16T03:21:18.794Z,0.48
2023-03-16T03:23:47.010Z,0.47
2023-03-16T03:26:16.117Z,0.46
2023-03-16T03:28:45.455Z,0.44
2023-03-16T03:31:16.283Z,0.45
2023-03-16T03:33:44.709Z,0.43
2023-03-16T03:36:13.575Z,0.44
2023-03-16T03:38:44.341Z,0.44
2023-03-16T03:41:13.553Z,0.44
2023-03-16T03:43:41.536Z,0.44
2023-03-16T03:46:14.289Z,0.44
2023-03-16T03:48:42.308Z,0.44
2023-03-16T03:51:10.219Z,0.42
2023-03-16T03:53:44.390Z,0.41
2023-03-16T03:56:18.870Z,0.40
2023-03-16T03:58:47.322Z,0.40
2023-03-16T04:01:21.139Z,0.40
2023-03-16T04:03:49.174Z,0.39
2023-03-16T04:06:17.428Z,0.40
2023-03-16T04:08:45.448Z,0.39
2023-03-16T04:11:15.974Z,0.39
2023-03-16T04:13:43.963Z,0.39
2023-03-16T04:16:16.526Z,0.40
2023-03-16T04:18:46.362Z,0.41
2023-03-16T04:21:17.600Z,0.44
2023-03-16T04:23:48.476Z,0.45
2023-03-16T04:26:16.910Z,0.47
2023-03-16T04:28:46.096Z,0.47
2023-03-16T04:31:16.082Z,0.48
2023-03-16T04:33:46.116Z,0.48
2023-03-16T04:36:14.391Z,0.50
2023-03-16T04:38:43.414Z,0.53
2023-03-16T04:41:11.605Z,0.55
2023-03-16T04:43:45.200Z,0.56
2023-03-16T04:46:21.738Z,0.59
2023-03-16T04:48:49.813Z,0.63
2023-03-16T04:51:17.893Z,0.67
2023-03-16T04:53:54.010Z,0.71
2023-03-16T04:56:26.440Z,0.76
2023-03-16T04:58:58.329Z,0.83
2023-03-16T05:01:28.489Z,0.89
2023-03-16T05:03:59.751Z,0.93
2023-03-16T05:06:28.207Z,0.97
2023-03-16T05:08:59.426Z,1.01
2023-03-16T05:11:28.007Z,1.05
2023-03-16T05:13:58.805Z,1.09
2023-03-16T05:16:26.987Z,1.12
2023-03-16T05:18:58.174Z,1.16
2023-03-16T05:21:32.162Z,1.21
2023-03-16T05:24:05.460Z,1.28
2023-03-16T05:26:34.063Z,1.37
2023-03-16T05:29:02.948Z,1.48
2023-03-16T05:31:36.255Z,1.62
2023-03-16T05:34:06.730Z,1.78
2023-03-16T05:36:36.252Z,1.96
2023-03-16T05:39:08.714Z,2.16
2023-03-16T05:41:39.298Z,2.38
2023-03-16T05:44:19.050Z,2.62
2023-03-16T05:47:07.336Z,2.87
2023-03-16T05:49:40.501Z,3.08
2023-03-16T05:52:11.738Z,3.29
2023-03-16T05:54:40.500Z,3.48
2023-03-16T05:57:10.394Z,3.66
2023-03-16T05:59:38.542Z,3.82
2023-03-16T06:02:06.978Z,3.96
2023-03-16T06:04:34.881Z,4.09
2023-03-16T06:07:03.140Z,4.21
2023-03-16T06:09:31.327Z,4.35
2023-03-16T06:11:59.240Z,4.64
2023-03-16T06:14:30.250Z,5.06
2023-03-16T06:16:58.248Z,5.49
2023-03-16T06:19:26.274Z,5.84
2023-03-16T06:21:58.431Z,6.19
2023-03-16T06:24:26.449Z,6.46
2023-03-16T06:26:54.318Z,6.74
2023-03-16T06:29:23.427Z,7.01
2023-03-16T06:31:52.544Z,7.27
2023-03-16T06:34:20.674Z,7.50
2023-03-16T06:36:48.654Z,7.70
2023-03-16T06:39:16.528Z,7.75
2023-03-16T06:41:48.124Z,7.81
2023-03-16T06:44:17.305Z,7.89
2023-03-16T06:47:11.790Z,7.94
2023-03-16T06:49:39.883Z,7.98
2023-03-16T06:52:14.940Z,8.03
2023-03-16T06:54:42.879Z,8.09
2023-03-16T06:57:11.538Z,8.15
2023-03-16T06:59:39.749Z,8.19
2023-03-16T07:02:13.204Z,8.19
2023-03-16T07:04:58.918Z,8.19
2023-03-16T07:07:30.221Z,8.21
2023-03-16T07:10:00.008Z,8.21
2023-03-16T07:12:29.054Z,8.17
2023-03-16T07:14:57.210Z,8.14
2023-03-16T07:17:28.974Z,8.12
2023-03-16T07:19:57.780Z,8.10
2023-03-16T07:22:28.180Z,8.08
2023-03-16T07:24:58.466Z,8.03
2023-03-16T07:27:29.610Z,7.99
2023-03-16T07:30:01.872Z,7.96
2023-03-16T07:32:32.663Z,7.86
2023-03-16T07:35:02.211Z,7.80
2023-03-16T07:37:32.337Z,7.75
2023-03-16T07:40:07.003Z,7.71
2023-03-16T07:42:37.670Z,7.69
2023-03-16T07:45:18.028Z,7.67
2023-03-16T07:47:48.148Z,7.62
2023-03-16T07:50:25.226Z,7.56
2023-03-16T07:52:54.482Z,7.55
2023-03-16T07:55:26.013Z,7.57
2023-03-16T07:57:54.468Z,7.52
2023-03-16T08:00:29.218Z,7.45
2023-03-16T08:02:58.934Z,7.48
2023-03-16T08:05:28.056Z,7.55
2023-03-16T08:08:01.973Z,7.60
2023-03-16T08:10:33.822Z,7.62
2023-03-16T08:13:10.275Z,7.65
2023-03-16T08:15:46.374Z,7.68
2023-03-16T08:18:23.857Z,7.73
2023-03-16T08:20:53.366Z,7.76
2023-03-16T08:23:24.132Z,7.75
2023-03-16T08:25:55.902Z,7.82
2023-03-16T08:28:25.936Z,7.93
2023-03-16T08:30:55.636Z,8.06
2023-03-16T08:33:43.672Z,8.39
2023-03-16T08:36:15.419Z,8.75
2023-03-16T08:38:56.639Z,9.05
2023-03-16T08:41:35.661Z,9.26
2023-03-16T08:44:07.934Z,9.30
2023-03-16T08:46:42.386Z,9.37
2023-03-16T08:49:11.075Z,9.43
2023-03-16T08:51:41.555Z,9.42
2023-03-16T08:54:10.940Z,9.43
2023-03-16T08:56:40.289Z,9.28
2023-03-16T08:59:16.816Z,8.95
2023-03-16T09:01:52.979Z,8.55
2023-03-16T09:04:23.575Z,8.28
2023-03-16T09:07:05.747Z,7.99
2023-03-16T09:09:36.172Z,7.84
2023-03-16T09:12:06.119Z,7.81
2023-03-16T09:14:38.539Z,7.85
2023-03-16T09:17:11.853Z,7.82
2023-03-16T09:19:51.203Z,7.70
2023-03-16T09:22:21.928Z,7.49
2023-03-16T09:24:53.991Z,7.48
2023-03-16T09:27:22.775Z,7.61
2023-03-16T09:29:53.057Z,7.72
2023-03-16T09:32:21.715Z,7.91
2023-03-16T09:34:51.686Z,8.11
2023-03-16T09:37:20.719Z,8.16
2023-03-16T09:39:49.761Z,8.03
2023-03-16T09:42:28.084Z,7.99
2023-03-16T09:45:22.906Z,8.04
2023-03-16T09:47:57.561Z,8.22
2023-03-16T09:50:47.791Z,8.41
2023-03-16T09:53:26.754Z,8.55
2023-03-16T09:56:22.409Z,8.43
2023-03-16T09:58:56.721Z,8.11
2023-03-16T10:01:37.036Z,7.90
2023-03-16T10:04:16.948Z,7.96
2023-03-16T10:06:55.845Z,8.12
2023-03-16T10:09:38.268Z,8.25
2023-03-16T10:12:08.764Z,8.34
2023-03-16T10:14:47.491Z,8.44
2023-03-16T10:17:24.266Z,8.30
2023-03-16T10:19:59.368Z,8.07
2023-03-16T10:22:34.900Z,7.96
2023-03-16T10:25:09.842Z,7.87
2023-03-16T10:27:43.428Z,7.80
2023-03-16T10:30:31.496Z,7.82
2023-03-16T10:33:13.292Z,7.97
2023-03-16T10:35:54.122Z,8.12
2023-03-16T10:38:46.931Z,8.29
2023-03-16T10:41:28.798Z,8.45
2023-03-16T10:44:12.793Z,8.59
2023-03-16T10:47:05.099Z,8.74
2023-03-16T10:49:41.726Z,8.81
2023-03-16T10:52:16.166Z,8.73
2023-03-16T10:54:52.655Z,8.71
2023-03-16T10:57:25.688Z,8.81
2023-03-16T10:59:59.590Z,8.78
2023-03-16T11:02:33.332Z,8.71
2023-03-16T11:05:13.464Z,8.77
2023-03-16T11:08:00.215Z,8.81
2023-03-16T11:10:36.144Z,8.87
2023-03-16T11:13:12.548Z,8.97
2023-03-16T11:16:02.630Z,8.95
2023-03-16T11:18:45.334Z,8.88
2023-03-16T11:21:33.663Z,8.89
2023-03-16T11:24:04.538Z,9.00
2023-03-16T11:26:39.432Z,9.05
2023-03-16T11:29:36.120Z,9.04
2023-03-16T11:32:24.979Z,9.03
2023-03-16T11:34:54.468Z,9.12
2023-03-16T11:37:25.837Z,9.20
2023-03-16T11:40:15.006Z,9.24
2023-03-16T11:43:21.114Z,9.27
2023-03-16T11:46:31.483Z,9.40
2023-03-16T11:49:35.028Z,9.51
2023-03-16T11:52:05.150Z,9.57
2023-03-16T11:54:49.259Z,9.58
2023-03-16T11:57:57.158Z,9.52
2023-03-16T12:01:04.333Z,9.55
2023-03-16T12:03:55.103Z,9.61
2023-03-16T12:06:48.400Z,9.69
2023-03-16T12:09:47.650Z,9.80
2023-03-16T12:12:35.532Z,9.94
2023-03-16T12:15:24.187Z,10.04
2023-03-16T12:18:10.710Z,10.14
2023-03-16T12:20:47.587Z,10.22
2023-03-16T12:23:27.296Z,10.25
2023-03-16T12:25:59.926Z,10.28
2023-03-16T12:28:31.619Z,10.29
2023-03-16T12:31:14.636Z,10.32
2023-03-16T12:33:57.375Z,10.36
2023-03-16T12:37:02.813Z,10.35
2023-03-16T12:39:51.590Z,10.30
2023-03-16T12:43:02.680Z,10.18
2023-03-16T12:45:40.700Z,10.23
2023-03-16T12:48:32.512Z,10.34
2023-03-16T12:51:03.596Z,10.42
2023-03-16T12:53:53.145Z,10.46
2023-03-16T12:56:34.099Z,10.41
2023-03-16T12:59:07.590Z,10.27
2023-03-16T13:01:46.007Z,10.17
2023-03-16T13:04:19.252Z,10.25
2023-03-16T13:06:51.666Z,10.35
2023-03-16T13:09:27.478Z,10.41
2023-03-16T13:11:56.181Z,10.50
2023-03-16T13:14:38.328Z,10.58
2023-03-16T13:17:24.249Z,10.65
2023-03-16T13:20:01.771Z,10.73
2023-03-16T13:22:50.922Z,10.81
2023-03-16T13:25:43.910Z,10.82
2023-03-16T13:28:17.604Z,10.77
2023-03-16T13:30:49.631Z,10.79
2023-03-16T13:33:31.167Z,10.86
2023-03-16T13:36:00.725Z,10.90
2023-03-16T13:39:05.140Z,10.74
2023-03-16T13:41:34.365Z,10.52
2023-03-16T13:44:14.025Z,10.46
2023-03-16T13:46:42.545Z,10.35
2023-03-16T13:49:12.308Z,10.25
2023-03-16T13:51:45.152Z,10.07
2023-03-16T13:54:29.790Z,10.01
2023-03-16T13:57:04.208Z,9.96
2023-03-16T13:59:33.296Z,9.85
2023-03-16T14:02:02.140Z,9.69
2023-03-16T14:04:32.759Z,9.65
2023-03-16T14:07:03.882Z,9.71
2023-03-16T14:09:34.512Z,9.78
2023-03-16T14:12:03.612Z,9.72
2023-03-16T14:14:39.345Z,9.67
2023-03-16T14:17:16.952Z,9.56
2023-03-16T14:19:50.588Z,9.44
2023-03-16T14:22:20.446Z,9.45
2023-03-16T14:24:55.025Z,9.41
2023-03-16T14:27:28.413Z,9.36
2023-03-16T14:30:01.862Z,9.32
2023-03-16T14:32:33.424Z,9.30
2023-03-16T14:35:21.340Z,9.28
2023-03-16T14:37:52.061Z,9.37
2023-03-16T14:40:26.653Z,9.45
2023-03-16T14:42:57.568Z,9.54
2023-03-16T14:45:33.784Z,9.49
2023-03-16T14:48:10.493Z,9.42
2023-03-16T14:50:38.443Z,9.46
2023-03-16T14:53:06.864Z,9.51
2023-03-16T14:55:34.830Z,9.55
2023-03-16T14:58:02.698Z,9.57
2023-03-16T15:00:32.982Z,9.56
2023-03-16T15:03:11.743Z,9.56
2023-03-16T15:05:42.222Z,9.48
2023-03-16T15:08:27.219Z,9.35
2023-03-16T15:10:58.996Z,9.30
2023-03-16T15:13:42.150Z,9.25
2023-03-16T15:16:12.709Z,9.20
2023-03-16T15:18:42.007Z,9.14
2023-03-16T15:21:14.474Z,9.14
2023-03-16T15:23:44.304Z,9.12
2023-03-16T15:26:15.054Z,9.01
2023-03-16T15:28:43.123Z,8.87
2023-03-16T15:31:13.375Z,8.80
2023-03-16T15:33:45.417Z,8.82
2023-03-16T15:36:19.226Z,8.77
2023-03-16T15:38:49.933Z,8.72
2023-03-16T15:41:17.928Z,8.76
2023-03-16T15:43:45.973Z,8.79
2023-03-16T15:46:14.797Z,8.81
2023-03-16T15:48:44.416Z,8.84
2023-03-16T15:51:31.417Z,8.81
2023-03-16T15:54:04.890Z,8.76
2023-03-16T15:56:44.193Z,8.73
2023-03-16T15:59:22.134Z,8.70
2023-03-16T16:01:51.857Z,8.71
2023-03-16T16:04:23.562Z,8.76
2023-03-16T16:06:55.290Z,8.81
2023-03-16T16:09:24.248Z,8.86
2023-03-16T16:11:52.322Z,8.88
2023-03-16T16:14:24.870Z,8.86
2023-03-16T16:16:54.378Z,8.89
2023-03-16T16:19:22.594Z,8.94
2023-03-16T16:21:50.602Z,8.95
2023-03-16T16:24:19.270Z,8.94
2023-03-16T16:26:53.811Z,8.94
2023-03-16T16:29:30.698Z,8.82
2023-03-16T16:31:59.114Z,8.65
2023-03-16T16:34:28.071Z,8.51
2023-03-16T16:36:57.278Z,8.38
2023-03-16T16:39:25.605Z,8.26
2023-03-16T16:41:56.320Z,8.14
2023-03-16T16:44:27.618Z,8.03
2023-03-16T16:46:55.789Z,7.92
2023-03-16T16:49:24.836Z,7.80
2023-03-16T16:51:53.717Z,7.70
2023-03-16T16:54:24.311Z,7.58
2023-03-16T16:56:57.495Z,7.46
2023-03-16T16:59:29.498Z,7.34
2023-03-16T17:01:57.636Z,7.23
2023-03-16T17:04:28.165Z,7.11
2023-03-16T17:06:59.791Z,7.01
2023-03-16T17:09:30.210Z,6.91
2023-03-16T17:12:01.034Z,6.82
2023-03-16T17:14:31.132Z,6.73
2023-03-16T17:17:05.186Z,6.64
2023-03-16T17:19:33.349Z,6.54
2023-03-16T17:22:20.173Z,6.44
2023-03-16T17:24:49.455Z,6.32
2023-03-16T17:27:24.880Z,6.22
2023-03-16T17:29:53.947Z,6.14
2023-03-16T17:32:22.901Z,6.05
2023-03-16T17:34:51.602Z,5.96
2023-03-16T17:37:22.105Z,5.88
2023-03-16T17:39:50.029Z,5.79
2023-03-16T17:42:20.367Z,5.73
2023-03-16T17:44:50.825Z,5.65
2023-03-16T17:47:21.905Z,5.57
2023-03-16T17:49:51.423Z,5.49
2023-03-16T17:52:23.546Z,5.42
2023-03-16T17:54:53.588Z,5.36
2023-03-16T17:57:33.516Z,5.30
2023-03-16T18:00:03.676Z,5.23
2023-03-16T18:02:40.345Z,5.17
2023-03-16T18:05:18.264Z,5.11
2023-03-16T18:07:46.863Z,5.04
2023-03-16T18:10:20.358Z,4.98
2023-03-16T18:12:50.893Z,4.93
2023-03-16T18:15:21.306Z,4.86
2023-03-16T18:17:50.959Z,4.80
2023-03-16T18:20:34.418Z,4.75
2023-03-16T18:23:15.403Z,4.69
2023-03-16T18:25:44.451Z,4.62
2023-03-16T18:28:16.149Z,4.56
2023-03-16T18:30:47.507Z,4.49
2023-03-16T18:33:28.692Z,4.43
2023-03-16T18:36:01.358Z,4.36
2023-03-16T18:38:38.419Z,4.30
2023-03-16T18:41:20.969Z,4.24
2023-03-16T18:43:51.161Z,4.18
2023-03-16T18:46:31.459Z,4.12
2023-03-16T18:49:04.440Z,4.03
2023-03-16T18:51:32.485Z,3.96
2023-03-16T18:54:00.904Z,3.91
2023-03-16T18:56:30.699Z,3.87
2023-03-16T18:58:58.620Z,3.83
2023-03-16T19:01:30.306Z,3.78
2023-03-16T19:03:59.848Z,3.72
2023-03-16T19:06:32.206Z,3.67
2023-03-16T19:09:27.038Z,3.61
2023-03-16T19:11:55.377Z,3.56
2023-03-16T19:14:31.178Z,3.51
2023-03-16T19:16:59.141Z,3.46
2023-03-16T19:19:27.200Z,3.44
2023-03-16T19:21:58.837Z,3.41
2023-03-16T19:24:31.938Z,3.38
2023-03-16T19:27:00.253Z,3.35
2023-03-16T19:29:33.254Z,3.33
2023-03-16T19:32:02.299Z,3.30
2023-03-16T19:34:30.443Z,3.27
2023-03-16T19:36:58.694Z,3.26
2023-03-16T19:39:27.954Z,3.23
2023-03-16T19:41:59.167Z,3.21
2023-03-16T19:44:28.925Z,3.20
2023-03-16T19:46:59.085Z,3.18
2023-03-16T19:49:27.802Z,3.17
2023-03-16T19:51:56.215Z,3.16
2023-03-16T19:54:25.693Z,3.16
2023-03-16T19:56:55.912Z,3.15
2023-03-16T19:59:30.032Z,3.14
2023-03-16T20:01:58.903Z,3.13
2023-03-16T20:04:28.041Z,3.13
2023-03-16T20:06:56.159Z,3.12
2023-03-16T20:09:24.013Z,3.11
2023-03-16T20:11:52.093Z,3.08
2023-03-16T20:14:46.541Z,3.06
2023-03-16T20:17:22.224Z,3.03
2023-03-16T20:19:51.027Z,3.01
2023-03-16T20:22:21.980Z,3.00
2023-03-16T20:24:51.073Z,2.99
2023-03-16T20:27:20.678Z,2.97
2023-03-16T20:29:49.248Z,2.96
2023-03-16T20:32:23.999Z,2.95
2023-03-16T20:34:53.622Z,2.93
2023-03-16T20:37:24.938Z,2.92
2023-03-16T20:39:56.460Z,2.91
2023-03-16T20:42:30.427Z,2.90
2023-03-16T20:44:58.828Z,2.91
2023-03-16T20:47:27.842Z,2.89
2023-03-16T20:49:57.505Z,2.87
2023-03-16T20:52:30.478Z,2.87
2023-03-16T20:54:59.102Z,2.84
2023-03-16T20:57:29.640Z,2.79
2023-03-16T20:59:58.026Z,2.75
2023-03-16T21:02:29.779Z,2.73
2023-03-16T21:05:00.372Z,2.71
2023-03-16T21:07:28.343Z,2.69
2023-03-16T21:09:56.819Z,2.67
2023-03-16T21:12:28.471Z,2.64
2023-03-16T21:14:58.897Z,2.59
2023-03-16T21:17:32.443Z,2.54
2023-03-16T21:20:01.381Z,2.51
2023-03-16T21:22:36.581Z,2.48
2023-03-16T21:25:04.857Z,2.44
2023-03-16T21:27:34.962Z,2.41
2023-03-16T21:30:29.060Z,2.39
2023-03-16T21:32:59.794Z,2.38
2023-03-16T21:35:36.389Z,2.37
2023-03-16T21:38:14.224Z,2.35
2023-03-16T21:40:42.626Z,2.31
2023-03-16T21:43:12.042Z,2.27
2023-03-16T21:45:41.150Z,2.22
2023-03-16T21:48:37.834Z,2.18
2023-03-16T21:51:18.216Z,2.12
2023-03-16T21:53:47.883Z,2.08
2023-03-16T21:56:19.001Z,2.05
2023-03-16T21:58:47.339Z,2.03
2023-03-16T22:01:23.175Z,2.00
2023-03-16T22:03:53.373Z,1.98
2023-03-16T22:06:22.962Z,1.94
2023-03-16T22:08:51.393Z,1.91
2023-03-16T22:11:22.657Z,1.88
2023-03-16T22:13:51.622Z,1.87
2023-03-16T22:16:23.344Z,1.84
2023-03-16T22:18:56.297Z,1.80
2023-03-16T22:21:33.113Z,1.76
2023-03-16T22:24:02.326Z,1.74
2023-03-16T22:26:30.279Z,1.72
2023-03-16T22:29:00.630Z,1.72
2023-03-16T22:31:34.646Z,1.72
2023-03-16T22:34:03.608Z,1.72
2023-03-16T22:36:33.211Z,1.73
2023-03-16T22:39:05.447Z,1.73
2023-03-16T22:41:33.897Z,1.74
2023-03-16T22:44:01.983Z,1.74
2023-03-16T22:46:30.527Z,1.75
2023-03-16T22:48:58.786Z,1.76
2023-03-16T22:51:34.470Z,1.76
2023-03-16T22:54:09.694Z,1.76
2023-03-16T22:56:39.067Z,1.74
2023-03-16T22:59:11.167Z,1.71
2023-03-16T23:01:43.917Z,1.69
2023-03-16T23:04:20.993Z,1.66
2023-03-16T23:06:51.439Z,1.57
2023-03-16T23:09:21.834Z,1.49
2023-03-16T23:11:53.924Z,1.46
2023-03-16T23:14:24.549Z,1.46
2023-03-16T23:16:52.849Z,1.46
2023-03-16T23:19:26.037Z,1.42
2023-03-16T23:21:57.462Z,1.39
2023-03-16T23:24:25.440Z,1.36
2023-03-16T23:26:54.366Z,1.35
2023-03-16T23:29:23.696Z,1.33
2023-03-16T23:31:51.906Z,1.31
2023-03-16T23:34:23.388Z,1.29
2023-03-16T23:36:51.750Z,1.27
2023-03-16T23:39:19.792Z,1.26
2023-03-16T23:41:49.754Z,1.27
2023-03-16T23:44:21.376Z,1.26
2023-03-16T23:46:49.892Z,1.23
2023-03-16T23:49:24.547Z,1.23
2023-03-16T23:51:53.248Z,1.22
2023-03-16T23:54:23.794Z,1.21
2023-03-16T23:56:52.213Z,1.18
2023-03-16T23:59:20.931Z,1.16
